Skip Navigation Links Skip Navigation Links

Current Weather

Santa Monica Muni, Santa Monica, Calif.

For information only: do not use for flight planning or navigation.
Latest weather
Observation time Tuesday, October 19, 2021 12:51 AM PDT
Local time Tuesday, October 19, 2021 1:41 AM PDT
Flight conditions Visual Meteorological Conditions
Winds
Wind speed calm
Visibility 10 mi.
Sky condition
Ceiling unlimited
Sky clear
Temperature 55°F
Dewpoint 51°F
Altimeter 29.99 in.Hg
Derived measurements
Relative humidity 86%
Density altitude 15 ft.
Sea-level pressure 29.99 in.Hg
Climate data
Temperature minimum, last 24 hours 55°F
Temperature maximum, last 24 hours 64°F
Remarks
Fully automated report.
Automated weather observing station with precipitation discriminator.
METAR KSMO 190751Z AUTO 00000KT 10SM CLR 13/11 A2999 RMK AO2 SLP156 T01280106 401780128

Settings

Location code

InnerDrive.Weather 4.0.6770.0 Release CLR 4.0.30319.42000
Copyright ©2018 Inner Drive Technology. All rights reserved. Portions Copyright ©1986-2018 David Braverman.

Find weather

Site navigation


Skip Navigation Links

Place info

Page info

PayPal - The safer, easier way to pay online!

Return home.

Copyright ©2021 Inner Drive Technology. Purveyors of fine, hand-crafted computer software. Page printed 2021-10-19T08:41:01 UTC.